Time;durP1;ratioP1;P1;durP2;ratioP2;P2;SDS_P1;SDS_P2;PMS_P1;PMS_P2;Temp;Humidity;BMP_temperature;BMP_pressure;BME280_temperature;BME280_humidity;BME280_pressure;Samples;Min_cycle;Max_cycle;Signal;HPM_P1;HPM_P2
2021/12/19 00:11:41;;;;;;;14.15;9.40;;;2.80;86.10;;;;;;10827886;33;20020;-70
2021/12/19 00:17:43;;;;;;;15.57;10.45;;;2.90;86.00;;;;;;10827610;33;20050;-70
2021/12/19 00:23:50;;;;;;;16.58;9.25;;;2.90;86.00;;;;;;10827612;33;20050;-70
2021/12/19 00:29:52;;;;;;;23.05;13.82;;;2.90;86.00;;;;;;10827237;33;20430;-70
2021/12/19 00:35:54;;;;;;;13.27;8.68;;;2.90;85.80;;;;;;10826002;33;20063;-70
2021/12/19 00:41:56;;;;;;;12.57;9.93;;;2.80;86.00;;;;;;10827122;32;20412;-70
2021/12/19 00:48:00;;;;;;;24.80;12.65;;;2.80;86.00;;;;;;10826591;33;20032;-70
2021/12/19 00:54:04;;;;;;;17.23;11.38;;;2.70;85.80;;;;;;10826519;33;20028;-71
2021/12/19 01:00:09;;;;;;;51.55;19.02;;;2.60;85.90;;;;;;10826266;32;20042;-70
2021/12/19 01:06:11;;;;;;;17.73;9.50;;;2.70;86.00;;;;;;10826176;33;20031;-71
2021/12/19 01:12:13;;;;;;;10.80;8.05;;;2.60;86.00;;;;;;10826071;33;20046;-70
2021/12/19 01:18:15;;;;;;;21.25;12.88;;;2.70;86.10;;;;;;10825635;33;20032;-70
2021/12/19 01:24:18;;;;;;;9.75;6.62;;;2.70;85.90;;;;;;10825710;33;20036;-70
2021/12/19 01:30:43;;;;;;;21.80;13.13;;;2.70;85.90;;;;;;10812383;33;20070;-70
2021/12/19 01:36:45;;;;;;;18.67;12.68;;;2.70;86.10;;;;;;10825512;33;20032;-70
2021/12/19 01:42:50;;;;;;;47.97;18.27;;;2.80;86.20;;;;;;10828827;27;20031;-70
2021/12/19 01:48:52;;;;;;;14.05;8.82;;;2.90;85.90;;;;;;10811898;33;20020;-70
2021/12/19 01:54:56;;;;;;;17.48;14.00;;;2.80;86.00;;;;;;10824858;33;20046;-70
2021/12/19 02:00:59;;;;;;;17.92;9.52;;;2.70;85.80;;;;;;10824815;33;20046;-70
2021/12/19 02:07:02;;;;;;;22.50;10.75;;;2.60;85.90;;;;;;10824146;33;20024;-70
2021/12/19 02:13:06;;;;;;;8.50;5.62;;;2.40;85.80;;;;;;10824611;33;20020;-70
2021/12/19 02:19:09;;;;;;;12.13;8.52;;;2.40;86.10;;;;;;10824415;33;20042;-70
2021/12/19 02:25:11;;;;;;;24.37;11.45;;;2.50;86.00;;;;;;10824369;33;20020;-70
2021/12/19 02:31:14;;;;;;;44.22;16.70;;;2.50;85.90;;;;;;10811037;33;20024;-76
2021/12/19 02:50:23;;;;;;;27.05;16.27;;;2.20;85.90;;;;;;10824569;33;20020;-76
2021/12/19 02:56:25;;;;;;;;;;;2.10;85.80;;;;;;10810834;32;20019;-75
2021/12/19 03:02:28;;;;;;;43.92;19.70;;;2.10;85.80;;;;;;10824015;33;19920;-76
2021/12/19 03:08:30;;;;;;;19.12;14.13;;;2.10;85.80;;;;;;10824276;33;20032;-76
2021/12/19 03:20:53;;;;;;;31.05;19.55;;;2.10;85.80;;;;;;10824448;33;20400;-76
2021/12/19 03:26:55;;;;;;;42.28;19.37;;;2.00;85.80;;;;;;10830235;33;20050;-76
2021/12/19 03:32:57;;;;;;;115.53;32.55;;;2.00;85.80;;;;;;10829756;33;20032;-76
2021/12/19 03:39:03;;;;;;;37.72;20.45;;;2.00;86.00;;;;;;10830461;33;20015;-76
2021/12/19 03:45:08;;;;;;;20.20;13.82;;;2.00;86.00;;;;;;10829286;33;20038;-71
2021/12/19 03:51:11;;;;;;;26.02;16.33;;;2.00;86.10;;;;;;10828494;33;20328;-70
2021/12/19 03:57:13;;;;;;;19.95;14.13;;;2.00;86.00;;;;;;10828252;33;20051;-71
2021/12/19 04:03:20;;;;;;;27.30;14.50;;;2.00;86.00;;;;;;10828071;33;20024;-71
2021/12/19 04:09:22;;;;;;;15.18;10.25;;;2.00;86.10;;;;;;10828081;33;20027;-70
2021/12/19 04:15:24;;;;;;;23.90;13.27;;;2.00;86.00;;;;;;10827878;32;20388;-70
2021/12/19 04:21:26;;;;;;;28.23;17.80;;;2.10;86.10;;;;;;10827591;33;20392;-71
2021/12/19 04:27:29;;;;;;;14.40;10.60;;;2.10;86.00;;;;;;10827528;33;20104;-71
2021/12/19 04:33:33;;;;;;;23.50;17.65;;;2.00;86.00;;;;;;10813674;33;20032;-71
2021/12/19 04:39:52;;;;;;;13.95;9.13;;;2.10;86.10;;;;;;10827052;33;20050;-71
2021/12/19 04:58:34;;;;;;;20.65;13.13;;;2.00;86.00;;;;;;10826543;33;20385;-71
2021/12/19 05:17:06;;;;;;;20.62;14.15;;;2.00;86.20;;;;;;10825997;33;20027;-71
2021/12/19 05:23:21;;;;;;;15.95;11.15;;;2.10;86.20;;;;;;10825771;33;20020;-71
2021/12/19 05:29:24;;;;;;;34.95;23.15;;;2.10;86.20;;;;;;10825628;33;20137;-71
2021/12/19 05:35:50;;;;;;;31.52;21.62;;;2.10;86.20;;;;;;10825641;33;20016;-71
2021/12/19 05:47:58;;;;;;;60.72;28.02;;;2.00;86.20;;;;;;10825056;33;20024;-71
2021/12/19 05:54:00;;;;;;;23.92;16.55;;;2.00;86.30;;;;;;10824915;33;20048;-71
2021/12/19 06:00:06;;;;;;;49.10;23.65;;;2.00;86.30;;;;;;10824967;33;20320;-71
2021/12/19 06:06:10;;;;;;;44.40;25.12;;;2.00;86.30;;;;;;10824912;33;20012;-78
2021/12/19 06:12:11;;;;;;;21.08;15.45;;;1.90;86.30;;;;;;10824764;33;20032;-77
2021/12/19 06:18:13;;;;;;;22.83;15.15;;;1.90;86.30;;;;;;10824729;33;20020;-77
2021/12/19 06:24:15;;;;;;;24.73;15.95;;;1.90;86.40;;;;;;10824478;33;20396;-77
2021/12/19 06:30:17;;;;;;;34.80;19.45;;;1.90;86.40;;;;;;10824363;32;20331;-77
2021/12/19 06:36:19;;;;;;;27.67;20.02;;;1.90;86.40;;;;;;10811365;33;20302;-77
2021/12/19 06:42:21;;;;;;;19.50;14.07;;;1.90;86.30;;;;;;10824075;33;20024;-77
2021/12/19 06:48:24;;;;;;;18.55;13.45;;;1.90;86.40;;;;;;10823791;33;20035;-71
2021/12/19 06:54:27;;;;;;;21.83;14.65;;;1.80;86.30;;;;;;10825644;32;20024;-71
2021/12/19 07:00:40;;;;;;;18.67;14.87;;;1.90;86.40;;;;;;10829371;33;20071;-71
2021/12/19 07:06:46;;;;;;;21.80;13.62;;;2.10;86.50;;;;;;10829543;33;20032;-71
2021/12/19 07:12:49;;;;;;;33.55;19.10;;;2.10;86.70;;;;;;10829522;33;20023;-71
2021/12/19 07:18:51;;;;;;;20.05;14.65;;;2.10;86.30;;;;;;10829414;33;20059;-71
2021/12/19 07:24:53;;;;;;;21.00;12.93;;;2.00;86.30;;;;;;10829161;33;20028;-71
2021/12/19 07:30:56;;;;;;;16.05;10.93;;;1.90;86.30;;;;;;10828337;33;20332;-76
2021/12/19 07:36:59;;;;;;;28.52;10.55;;;1.90;86.40;;;;;;10811923;33;20055;-76
2021/12/19 07:43:45;;;;;;;16.95;12.95;;;1.90;86.40;;;;;;10828941;33;20050;-78
2021/12/19 07:49:47;;;;;;;18.83;14.85;;;1.90;86.30;;;;;;10831288;32;20089;-78
2021/12/19 07:55:59;;;;;;;34.08;17.62;;;1.90;86.30;;;;;;10829985;32;20029;-78
2021/12/19 08:02:02;;;;;;;23.38;16.23;;;2.10;86.60;;;;;;10831482;32;20028;-79
2021/12/19 08:08:05;;;;;;;15.43;10.25;;;2.00;86.20;;;;;;10814939;32;20154;-78
2021/12/19 08:14:10;;;;;;;20.73;14.23;;;1.90;86.30;;;;;;10830849;32;20024;-78
2021/12/19 08:20:14;;;;;;;20.90;13.77;;;1.90;86.20;;;;;;10829923;32;20448;-78
2021/12/19 08:26:16;;;;;;;41.05;20.17;;;1.90;86.20;;;;;;10829096;32;20031;-78
2021/12/19 08:32:18;;;;;;;27.50;18.23;;;1.80;86.20;;;;;;10822920;33;20058;-79
2021/12/19 08:38:20;;;;;;;34.25;23.83;;;1.80;86.20;;;;;;10826686;33;20074;-78
2021/12/19 08:44:22;;;;;;;27.90;17.40;;;1.80;86.20;;;;;;10827275;33;20316;-78
2021/12/19 08:50:26;;;;;;;19.12;12.82;;;1.80;86.20;;;;;;10827767;33;20412;-78
2021/12/19 08:56:35;;;;;;;30.10;17.33;;;1.90;86.50;;;;;;10828432;33;20031;-77
2021/12/19 09:02:38;;;;;;;73.50;23.10;;;2.00;86.30;;;;;;10877636;32;20306;-78
2021/12/19 09:08:40;;;;;;;64.15;25.77;;;2.10;86.20;;;;;;10823447;33;20055;-78
2021/12/19 09:14:42;;;;;;;20.83;13.60;;;2.10;86.20;;;;;;10827564;33;20020;-78
2021/12/19 09:20:45;;;;;;;23.73;15.32;;;2.10;86.20;;;;;;10825733;32;20054;-70
2021/12/19 09:26:48;;;;;;;16.73;10.55;;;2.10;86.20;;;;;;10821144;33;20297;-72
2021/12/19 09:32:50;;;;;;;14.38;10.77;;;2.20;86.30;;;;;;10825645;33;20096;-72
2021/12/19 09:38:52;;;;;;;51.58;29.40;;;2.40;86.40;;;;;;10824079;33;20024;-71
2021/12/19 09:44:56;;;;;;;19.45;13.43;;;2.50;86.10;;;;;;10341027;27;15312022;-72
2021/12/19 09:50:59;;;;;;;28.87;21.15;;;2.40;86.00;;;;;;10787842;33;20024;-72
2021/12/19 09:57:02;;;;;;;36.00;21.77;;;2.40;86.00;;;;;;10775272;33;20056;-71
2021/12/19 10:03:04;;;;;;;30.25;23.27;;;2.30;86.10;;;;;;10788029;33;20381;-71
2021/12/19 10:09:17;;;;;;;40.38;26.83;;;2.20;85.90;;;;;;10787863;33;20051;-72
2021/12/19 10:15:34;;;;;;;23.62;17.02;;;2.20;86.10;;;;;;10787792;33;20054;-72
2021/12/19 10:22:00;;;;;;;33.85;21.58;;;2.20;86.20;;;;;;10774673;33;20024;-71
2021/12/19 10:28:04;;;;;;;27.52;20.25;;;2.40;86.40;;;;;;10771145;33;20082;-71
2021/12/19 10:34:20;;;;;;;28.10;21.58;;;2.50;86.50;;;;;;10772987;32;20055;-72
2021/12/19 10:40:22;;;;;;;20.77;14.57;;;2.60;86.50;;;;;;10757175;33;20075;-72
2021/12/19 10:46:33;;;;;;;32.05;19.55;;;2.70;86.60;;;;;;10756900;33;20047;-71
2021/12/19 10:52:39;;;;;;;22.87;17.05;;;2.70;86.40;;;;;;10739684;33;20032;-71
2021/12/19 10:58:45;;;;;;;24.80;19.65;;;2.70;86.50;;;;;;10756613;33;20047;-71
2021/12/19 11:04:47;;;;;;;19.23;13.52;;;2.80;86.50;;;;;;10762760;33;20399;-71
2021/12/19 11:10:49;;;;;;;22.77;17.52;;;2.90;86.60;;;;;;10791079;33;20106;-69
2021/12/19 11:17:02;;;;;;;36.08;23.08;;;2.90;86.30;;;;;;10790338;33;20024;-71
2021/12/19 11:23:04;;;;;;;30.00;21.27;;;2.80;86.20;;;;;;10792519;33;20055;-71
2021/12/19 11:29:10;;;;;;;20.85;15.68;;;2.80;86.30;;;;;;10792371;33;20024;-71
2021/12/19 11:35:24;;;;;;;25.10;17.58;;;2.90;86.50;;;;;;10791747;33;20082;-71
2021/12/19 11:41:27;;;;;;;23.15;18.58;;;2.90;86.20;;;;;;10791239;33;20025;-69
2021/12/19 11:47:58;;;;;;;30.40;20.27;;;3.00;86.50;;;;;;10791842;33;20028;-69
2021/12/19 11:54:11;;;;;;;;;;;3.00;86.40;;;;;;10792045;32;20024;-71
2021/12/19 12:00:35;;;;;;;24.12;14.93;;;3.10;86.40;;;;;;10791595;32;20163;-69
2021/12/19 12:06:42;;;;;;;21.12;16.20;;;3.20;86.40;;;;;;10791161;33;20043;-71
2021/12/19 12:12:51;;;;;;;23.02;14.18;;;3.20;86.20;;;;;;10778060;33;20032;-71
2021/12/19 12:18:57;;;;;;;49.70;37.00;;;3.30;86.30;;;;;;10791026;33;20059;-69
2021/12/19 12:25:32;;;;;;;25.10;19.62;;;3.30;86.30;;;;;;10790870;33;20035;-69
2021/12/19 12:31:35;;;;;;;32.90;22.87;;;3.30;86.30;;;;;;10790606;33;20051;-70
2021/12/19 12:37:40;;;;;;;28.62;18.67;;;3.20;86.20;;;;;;10790518;33;20012;-71
2021/12/19 12:43:44;;;;;;;23.02;15.88;;;3.20;86.40;;;;;;10787226;33;20082;-70
2021/12/19 12:49:46;;;;;;;36.35;22.50;;;3.40;86.60;;;;;;10790358;33;20043;-69
2021/12/19 12:56:13;;;;;;;24.80;17.37;;;3.40;86.30;;;;;;10788031;33;20051;-69
2021/12/19 13:03:22;;;;;;;20.95;13.65;;;3.40;86.30;;;;;;10789814;33;20051;-69
2021/12/19 13:10:03;;;;;;;33.17;21.65;;;3.40;86.30;;;;;;10791578;32;20369;-71
2021/12/19 13:16:08;;;;;;;36.45;28.50;;;3.50;86.50;;;;;;10753842;32;20024;-71
2021/12/19 13:22:34;;;;;;;43.60;29.08;;;3.40;86.60;;;;;;10749916;32;20066;-71
2021/12/19 13:28:36;;;;;;;29.48;22.08;;;3.50;86.50;;;;;;10753649;33;20348;-70
2021/12/19 13:34:41;;;;;;;25.77;17.80;;;3.40;86.50;;;;;;10751557;32;20055;-70
2021/12/19 13:41:10;;;;;;;34.00;23.02;;;3.40;86.70;;;;;;10746505;32;20056;-70
2021/12/19 13:47:22;;;;;;;31.83;23.43;;;3.40;86.60;;;;;;10651215;33;20028;-70
2021/12/19 13:53:27;;;;;;;29.70;21.20;;;3.40;86.50;;;;;;10775132;33;20016;-70
2021/12/19 13:59:29;;;;;;;21.37;14.43;;;3.30;86.50;;;;;;10788388;33;20046;-70
2021/12/19 14:05:41;;;;;;;32.42;22.77;;;3.40;86.70;;;;;;10787470;33;20016;-70
2021/12/19 14:11:49;;;;;;;23.65;15.23;;;3.40;86.60;;;;;;10787934;32;20029;-70
2021/12/19 14:17:55;;;;;;;31.67;20.33;;;3.40;86.50;;;;;;10785505;33;20028;-71
2021/12/19 14:24:08;;;;;;;28.90;20.23;;;3.50;86.50;;;;;;10787704;33;20094;-70
2021/12/19 14:30:15;;;;;;;22.33;15.77;;;3.50;86.60;;;;;;10787582;33;20028;-70
2021/12/19 14:36:28;;;;;;;23.70;14.55;;;3.60;86.70;;;;;;10787591;33;20297;-74
2021/12/19 14:42:34;;;;;;;24.92;17.92;;;3.60;86.60;;;;;;10785623;33;20046;-73
2021/12/19 14:48:39;;;;;;;23.08;16.80;;;3.60;86.60;;;;;;10784899;33;20028;-74
2021/12/19 14:54:41;;;;;;;35.40;23.02;;;3.60;86.50;;;;;;10773670;33;20332;-74
2021/12/19 15:00:50;;;;;;;50.63;30.23;;;3.40;86.70;;;;;;10786743;33;20050;-74
2021/12/19 15:06:58;;;;;;;32.63;21.90;;;3.50;86.70;;;;;;10773947;33;20048;-74
2021/12/19 15:13:01;;;;;;;98.55;45.88;;;3.30;86.60;;;;;;10786427;33;20058;-74
2021/12/19 15:19:07;;;;;;;65.60;35.08;;;3.20;86.70;;;;;;10779394;33;20054;-74
2021/12/19 15:25:11;;;;;;;54.45;34.00;;;3.20;86.80;;;;;;10792439;33;20349;-75
2021/12/19 15:31:14;;;;;;;33.72;20.85;;;3.10;86.70;;;;;;10792153;33;20082;-74
2021/12/19 15:37:17;;;;;;;32.88;21.42;;;3.20;86.90;;;;;;10792065;33;20029;-74
2021/12/19 15:43:22;;;;;;;40.47;26.12;;;3.20;86.80;;;;;;10791836;33;20016;-74
2021/12/19 15:49:25;;;;;;;41.88;25.60;;;3.10;86.80;;;;;;10791682;33;20024;-74
2021/12/19 15:55:27;;;;;;;33.00;24.73;;;3.10;86.70;;;;;;10791780;33;20392;-75
2021/12/19 16:01:30;;;;;;;115.30;35.42;;;3.10;86.90;;;;;;10791531;33;20039;-75
2021/12/19 16:07:32;;;;;;;40.97;26.70;;;3.10;86.70;;;;;;10791353;33;20043;-74
2021/12/19 16:13:34;;;;;;;49.72;33.50;;;2.90;86.70;;;;;;10791161;33;20041;-75
2021/12/19 16:19:37;;;;;;;73.12;44.45;;;2.90;86.80;;;;;;10791233;33;20012;-74
2021/12/19 16:25:39;;;;;;;71.47;38.85;;;2.80;86.70;;;;;;10790098;33;20028;-75
2021/12/19 16:31:41;;;;;;;40.75;26.95;;;2.70;86.70;;;;;;10761522;33;20052;-75
2021/12/19 16:37:43;;;;;;;34.08;22.50;;;2.70;86.70;;;;;;10753697;33;20051;-75
2021/12/19 16:43:46;;;;;;;43.42;25.92;;;2.60;86.80;;;;;;10762673;33;20305;-74
2021/12/19 16:49:48;;;;;;;29.70;20.50;;;2.70;87.00;;;;;;10789774;33;20268;-75
2021/12/19 16:55:50;;;;;;;29.55;22.25;;;2.70;87.00;;;;;;10789882;33;20051;-75
2021/12/19 17:01:52;;;;;;;48.35;32.60;;;2.80;87.00;;;;;;10786377;33;20055;-74
2021/12/19 17:07:55;;;;;;;26.73;17.95;;;2.80;87.00;;;;;;10776399;33;20024;-74
2021/12/19 17:14:11;;;;;;;75.45;34.50;;;2.80;86.90;;;;;;10789446;33;20059;-75
2021/12/19 17:20:14;;;;;;;80.53;34.33;;;2.80;86.90;;;;;;10788379;33;20332;-75
2021/12/19 17:26:16;;;;;;;33.08;20.12;;;2.70;86.70;;;;;;10789275;33;20047;-74
2021/12/19 17:32:18;;;;;;;30.58;20.17;;;2.60;86.80;;;;;;10788930;33;20017;-74
2021/12/19 17:38:20;;;;;;;32.22;24.30;;;2.70;87.00;;;;;;10774972;33;20405;-75
2021/12/19 17:44:23;;;;;;;35.25;21.30;;;2.80;87.10;;;;;;10815086;27;20068;-75
2021/12/19 17:50:25;;;;;;;23.58;14.87;;;2.90;87.00;;;;;;10825054;33;20015;-74
2021/12/19 17:56:27;;;;;;;28.00;20.00;;;2.80;86.90;;;;;;10823126;33;20023;-75
2021/12/19 18:02:30;;;;;;;83.72;36.75;;;2.70;86.80;;;;;;10825228;33;20031;-75
2021/12/19 18:08:32;;;;;;;25.23;19.50;;;2.60;86.70;;;;;;10822720;33;20340;-75
2021/12/19 18:14:34;;;;;;;28.70;20.58;;;2.40;86.80;;;;;;10824791;33;20058;-75
2021/12/19 18:20:36;;;;;;;28.15;17.15;;;2.30;86.80;;;;;;10822856;33;20054;-75
2021/12/19 18:26:38;;;;;;;20.65;13.88;;;2.30;86.80;;;;;;10824295;33;20059;-75
2021/12/19 18:32:41;;;;;;;19.77;13.27;;;2.30;86.70;;;;;;10823102;33;20059;-75
2021/12/19 18:39:05;;;;;;;23.62;17.73;;;2.30;86.80;;;;;;10824111;33;20035;-75
2021/12/19 18:45:21;;;;;;;28.67;17.42;;;2.30;86.70;;;;;;10821189;33;20344;-75
2021/12/19 18:51:41;;;;;;;35.20;18.65;;;2.20;86.60;;;;;;10825979;32;20028;-75
2021/12/19 18:57:46;;;;;;;;;;;2.20;86.70;;;;;;10830526;32;20098;-75
2021/12/19 19:09:54;;;;;;;16.05;10.82;;;2.10;86.60;;;;;;10829803;33;20024;-75
2021/12/19 19:15:56;;;;;;;24.00;15.30;;;2.20;86.70;;;;;;10829692;33;20020;-75
2021/12/19 19:22:18;;;;;;;15.88;11.90;;;2.30;86.60;;;;;;10815287;33;20024;-75
2021/12/19 19:28:20;;;;;;;19.62;12.07;;;2.20;86.60;;;;;;10816153;33;20019;-75
2021/12/19 19:34:22;;;;;;;27.73;20.00;;;2.20;86.70;;;;;;10829212;33;20388;-70
2021/12/19 19:52:48;;;;;;;18.58;12.90;;;2.30;86.50;;;;;;10828624;33;20043;-70
2021/12/19 19:58:50;;;;;;;24.20;14.48;;;2.30;86.50;;;;;;10828475;33;20012;-70
2021/12/19 20:04:52;;;;;;;30.77;20.30;;;2.20;86.40;;;;;;10827568;32;20387;-70
2021/12/19 20:10:58;;;;;;;48.47;26.42;;;2.10;86.40;;;;;;10814918;33;20032;-71
2021/12/19 20:17:09;;;;;;;21.27;15.48;;;2.00;86.40;;;;;;10827824;33;20054;-70
2021/12/19 20:23:11;;;;;;;27.90;19.60;;;1.80;86.30;;;;;;10827982;33;20011;-71
2021/12/19 20:29:20;;;;;;;36.47;20.08;;;1.90;86.50;;;;;;10814487;33;20031;-70
2021/12/19 20:35:22;;;;;;;19.20;14.02;;;1.90;86.40;;;;;;10827398;33;20047;-70
2021/12/19 20:41:26;;;;;;;19.75;14.73;;;2.00;86.50;;;;;;10827171;32;20103;-70
2021/12/19 20:48:01;;;;;;;22.15;13.00;;;2.10;86.50;;;;;;10826942;33;20023;-70
2021/12/19 20:54:06;;;;;;;22.52;14.30;;;2.10;86.50;;;;;;10826956;33;20050;-71
2021/12/19 21:00:11;;;;;;;41.28;20.37;;;2.00;86.30;;;;;;10822958;33;20012;-70
2021/12/19 21:06:14;;;;;;;18.37;12.70;;;1.80;86.20;;;;;;10826579;33;20020;-71
2021/12/19 21:12:25;;;;;;;21.27;15.85;;;1.90;86.40;;;;;;10826080;32;20396;-70
2021/12/19 21:24:48;;;;;;;142.95;36.90;;;1.70;86.30;;;;;;10827082;33;20341;-70
2021/12/19 21:30:51;;;;;;;27.85;17.65;;;1.70;86.20;;;;;;10825846;32;20070;-70
2021/12/19 21:43:18;;;;;;;20.65;12.75;;;1.70;86.30;;;;;;10823125;32;20027;-70
2021/12/19 21:49:20;;;;;;;41.28;21.12;;;1.70;86.30;;;;;;10825365;33;20024;-70
2021/12/19 21:55:22;;;;;;;45.50;18.00;;;1.60;86.20;;;;;;10824979;33;20086;-70
2021/12/19 22:01:25;;;;;;;24.75;16.52;;;1.50;86.30;;;;;;10822502;33;20023;-70
2021/12/19 22:07:27;;;;;;;23.85;16.90;;;1.50;86.30;;;;;;10820722;33;20046;-71
2021/12/19 22:15:25;;;;;;;19.87;12.40;;;1.50;86.40;;;;;;10824676;33;20028;-70
2021/12/19 22:19:51;;;;;;;19.75;14.00;;;1.70;86.40;;;;;;10824624;33;20020;-70
2021/12/19 22:25:53;;;;;;;18.02;12.77;;;1.80;86.50;;;;;;10827340;32;20027;-71
2021/12/19 22:31:55;;;;;;;27.67;13.32;;;2.00;86.60;;;;;;10834141;33;20027;-76
2021/12/19 22:37:58;;;;;;;15.52;11.75;;;2.10;86.40;;;;;;10835449;33;20025;-76
2021/12/19 22:44:02;;;;;;;23.62;13.07;;;1.90;86.30;;;;;;10829337;33;20043;-76
2021/12/19 22:50:17;;;;;;;23.12;13.68;;;2.10;86.60;;;;;;10832866;33;20347;-76
2021/12/19 22:56:19;;;;;;;25.73;17.75;;;2.20;86.70;;;;;;10832076;33;20038;-76
2021/12/19 23:02:21;;;;;;;17.67;10.85;;;2.20;86.60;;;;;;10835385;33;20013;-76
2021/12/19 23:08:24;;;;;;;23.15;15.57;;;2.10;86.60;;;;;;10836234;33;20063;-76
2021/12/19 23:14:40;;;;;;;19.27;12.02;;;2.10;86.60;;;;;;10823075;33;20305;-76
2021/12/19 23:20:46;;;;;;;16.62;11.35;;;2.20;86.70;;;;;;10836221;33;20073;-76
2021/12/19 23:26:48;;;;;;;24.83;16.98;;;2.30;86.60;;;;;;10833987;33;20016;-77
2021/12/19 23:39:31;;;;;;;45.88;19.33;;;2.30;86.50;;;;;;10829679;32;20055;-77
2021/12/19 23:45:33;;;;;;;16.80;11.88;;;2.50;86.40;;;;;;10832889;33;20043;-77
2021/12/19 23:51:35;;;;;;;22.10;13.75;;;2.40;86.30;;;;;;10833240;33;20317;-77
2021/12/19 23:57:38;;;;;;;33.00;15.05;;;2.60;86.60;;;;;;10830850;33;20347;-77
